createdAt,value
2018-08-23T00:00:01.542Z,1000.64
2018-08-23T00:05:01.854Z,1000.65
2018-08-23T00:10:02.343Z,1000.67
2018-08-23T00:15:01.720Z,1000.52
2018-08-23T00:20:02.191Z,1000.46
2018-08-23T00:25:01.512Z,1000.43
2018-08-23T00:30:01.763Z,1000.4
2018-08-23T00:35:02.358Z,1000.34
2018-08-23T00:40:01.734Z,1000.28
2018-08-23T00:45:02.258Z,1000.34
2018-08-23T00:50:01.686Z,1000.28
2018-08-23T00:55:02.154Z,1000.32
2018-08-23T01:00:01.776Z,1000.33
2018-08-23T01:05:02.241Z,1000.29
2018-08-23T01:10:01.478Z,1000.25
2018-08-23T01:15:01.769Z,1000.19
2018-08-23T01:20:02.242Z,1000.19
2018-08-23T01:25:01.485Z,1000.16
2018-08-23T01:30:01.716Z,1000.03
2018-08-23T01:35:02.032Z,1000.09
2018-08-23T01:40:01.261Z,1000.01
2018-08-23T01:45:01.518Z,999.95
2018-08-23T01:50:01.957Z,999.97
2018-08-23T01:55:02.226Z,999.9
2018-08-23T02:00:01.465Z,999.87
2018-08-23T02:05:01.898Z,999.87
2018-08-23T02:10:02.183Z,999.78
2018-08-23T02:15:01.489Z,999.74
2018-08-23T02:20:01.902Z,999.63
2018-08-23T02:25:02.368Z,999.69
2018-08-23T02:30:01.280Z,999.66
2018-08-23T02:35:01.812Z,999.61
2018-08-23T02:40:02.043Z,999.57
2018-08-23T02:45:01.279Z,999.52
2018-08-23T02:50:01.645Z,999.47
2018-08-23T02:55:01.933Z,999.45
2018-08-23T03:00:02.177Z,999.35
2018-08-23T03:05:01.484Z,999.34
2018-08-23T03:10:01.736Z,999.31
2018-08-23T03:15:02.024Z,999.31
2018-08-23T03:20:01.320Z,999.26
2018-08-23T03:25:01.637Z,999.26
2018-08-23T03:30:01.879Z,999.16
2018-08-23T03:35:02.321Z,999.22
2018-08-23T03:40:01.599Z,999.19
2018-08-23T03:45:01.922Z,999.22
2018-08-23T03:50:02.436Z,999.27
2018-08-23T03:55:01.778Z,999.28
2018-08-23T04:00:02.054Z,999.28
2018-08-23T04:05:01.335Z,999.23
2018-08-23T04:10:01.670Z,999.29
2018-08-23T04:15:01.935Z,999.29
2018-08-23T04:20:02.404Z,999.26
2018-08-23T04:25:01.842Z,999.21
2018-08-23T04:30:02.161Z,999.29
2018-08-23T04:35:01.496Z,999.24
2018-08-23T04:40:01.892Z,999.27
2018-08-23T04:45:02.204Z,999.27
2018-08-23T04:50:01.521Z,999.22
2018-08-23T04:55:01.811Z,999.22
2018-08-23T05:00:02.044Z,999.18
2018-08-23T05:05:01.397Z,999.13
2018-08-23T05:10:01.687Z,999.16
2018-08-23T05:15:01.929Z,999.15
2018-08-23T05:20:02.407Z,999.24
2018-08-23T05:25:01.758Z,999.18
2018-08-23T05:30:02.076Z,999.16
2018-08-23T05:35:01.373Z,999.15
2018-08-23T05:40:01.677Z,999.13
2018-08-23T05:45:01.934Z,999.12
2018-08-23T05:50:02.350Z,999.03
2018-08-23T05:55:01.636Z,999.07
2018-08-23T06:00:01.898Z,999.04
2018-08-23T06:05:02.403Z,998.91
2018-08-23T06:10:01.667Z,998.85
2018-08-23T06:15:01.904Z,998.85
2018-08-23T06:20:02.492Z,998.81
2018-08-23T06:25:02.018Z,998.93
2018-08-23T06:30:01.267Z,998.94
2018-08-23T06:35:01.565Z,998.92
2018-08-23T06:40:01.912Z,998.96
2018-08-23T06:45:02.232Z,999.04
2018-08-23T06:50:01.535Z,998.98
2018-08-23T06:55:01.805Z,998.99
2018-08-23T07:00:02.177Z,999
2018-08-23T07:05:01.445Z,998.95
2018-08-23T07:10:01.721Z,999.01
2018-08-23T07:15:02.045Z,999.06
2018-08-23T07:20:01.300Z,999
2018-08-23T07:25:01.705Z,999.03
2018-08-23T07:30:02.445Z,999.05
2018-08-23T07:35:01.671Z,999.1
2018-08-23T07:40:02.176Z,999.04
2018-08-23T07:45:01.484Z,999
2018-08-23T07:50:01.925Z,999.02
2018-08-23T07:55:02.183Z,999.11
2018-08-23T08:00:01.438Z,999.07
2018-08-23T08:05:01.969Z,999.07
2018-08-23T08:10:02.244Z,999.03
2018-08-23T08:15:02.135Z,998.93
2018-08-23T08:20:01.552Z,998.98
2018-08-23T08:25:01.983Z,998.89
2018-08-23T08:30:02.278Z,998.8
2018-08-23T08:35:01.642Z,998.77
2018-08-23T08:40:01.909Z,998.78
2018-08-23T08:45:02.218Z,998.76
2018-08-23T08:50:01.505Z,998.71
2018-08-23T08:55:01.813Z,998.64
2018-08-23T09:00:02.159Z,998.66
2018-08-23T09:05:01.435Z,998.6
2018-08-23T09:10:01.728Z,998.49
2018-08-23T09:15:01.973Z,998.49
2018-08-23T09:20:01.311Z,998.46
2018-08-23T09:25:01.619Z,998.42
2018-08-23T09:30:01.868Z,998.49
2018-08-23T09:35:02.790Z,998.41
2018-08-23T09:40:02.126Z,998.31
2018-08-23T09:45:01.377Z,998.34
2018-08-23T09:50:01.929Z,998.23
2018-08-23T09:55:02.260Z,998.16
2018-08-23T10:00:01.496Z,998.1
2018-08-23T10:05:01.945Z,998.08
2018-08-23T10:10:02.294Z,998.02
2018-08-23T10:15:01.551Z,998.02
2018-08-23T10:20:02.102Z,998.01
2018-08-23T10:25:01.362Z,997.95
2018-08-23T10:30:01.701Z,997.88
2018-08-23T10:35:02.129Z,997.78
2018-08-23T10:40:01.367Z,997.76
2018-08-23T10:45:01.624Z,997.7
2018-08-23T10:50:02.162Z,997.74
2018-08-23T10:55:01.410Z,997.69
2018-08-23T11:00:01.699Z,997.68
2018-08-23T11:05:02.145Z,997.6
2018-08-23T11:10:01.397Z,997.62
2018-08-23T11:15:01.700Z,997.58
2018-08-23T11:20:01.986Z,997.49
2018-08-23T11:25:02.280Z,997.5
2018-08-23T11:30:01.886Z,997.47
2018-08-23T11:35:01.317Z,997.45
2018-08-23T11:40:01.581Z,997.46
2018-08-23T11:45:01.861Z,997.39
2018-08-23T11:50:02.277Z,997.38
2018-08-23T11:55:01.510Z,997.38
2018-08-23T12:00:01.788Z,997.42
2018-08-23T12:05:02.365Z,997.3
2018-08-23T12:10:02.129Z,997.27
2018-08-23T12:15:01.441Z,997.24
2018-08-23T12:20:01.812Z,997.22
2018-08-23T12:25:02.119Z,997.15
2018-08-23T12:30:01.357Z,997.11
2018-08-23T12:35:02.329Z,997.09
2018-08-23T12:40:01.765Z,997.02
2018-08-23T12:45:02.110Z,996.93
2018-08-23T12:50:01.388Z,996.97
2018-08-23T12:55:01.626Z,996.72
2018-08-23T13:00:01.895Z,996.71
2018-08-23T13:05:02.400Z,996.66
2018-08-23T13:10:01.717Z,996.69
2018-08-23T13:15:01.978Z,996.53
2018-08-23T13:20:01.278Z,996.51
2018-08-23T13:25:01.604Z,996.43
2018-08-23T13:30:02.202Z,996.35
2018-08-23T13:35:01.489Z,996.32
2018-08-23T13:40:02.128Z,996.26
2018-08-23T13:45:01.359Z,996.24
2018-08-23T13:50:01.735Z,996.18
2018-08-23T13:55:02.034Z,996.16
2018-08-23T14:00:01.345Z,996.18
2018-08-23T14:05:01.743Z,996.2
2018-08-23T14:10:01.994Z,996.16
2018-08-23T14:15:01.281Z,996.17
2018-08-23T14:20:01.614Z,996.07
2018-08-23T14:25:01.859Z,996.04
2018-08-23T14:30:02.108Z,996
2018-08-23T14:35:01.416Z,996
2018-08-23T14:40:02.034Z,995.96
2018-08-23T14:45:01.391Z,995.85
2018-08-23T14:50:01.697Z,995.85
2018-08-23T14:55:02.068Z,995.85
2018-08-23T15:00:01.364Z,995.75
2018-08-23T15:05:01.676Z,995.66
2018-08-23T15:10:01.966Z,995.58
2018-08-23T15:15:02.568Z,995.62
2018-08-23T15:20:02.085Z,995.52
2018-08-23T15:25:01.325Z,995.51
2018-08-23T15:30:01.559Z,995.46
2018-08-23T15:35:01.947Z,995.41
2018-08-23T15:40:02.189Z,995.35
2018-08-23T15:45:01.418Z,995.33
2018-08-23T15:50:01.768Z,995.26
2018-08-23T15:55:02.397Z,995.3
2018-08-23T16:00:01.752Z,995.41
2018-08-23T16:05:02.167Z,995.33
2018-08-23T16:10:01.407Z,995.46
2018-08-23T16:15:01.676Z,995.38
2018-08-23T16:20:02.131Z,995.32
2018-08-23T16:25:01.781Z,995.34
2018-08-23T16:30:02.137Z,995.4
2018-08-23T16:35:01.459Z,995.39
2018-08-23T16:40:01.732Z,995.42
2018-08-23T16:45:02.007Z,995.54
2018-08-23T16:50:01.290Z,995.43
2018-08-23T16:55:01.554Z,995.43
2018-08-23T17:00:01.905Z,995.45
2018-08-23T17:05:02.473Z,995.39
2018-08-23T17:10:01.941Z,995.33
2018-08-23T17:15:02.258Z,995.45
2018-08-23T17:20:01.655Z,995.54
2018-08-23T17:25:02.352Z,995.51
2018-08-23T17:30:01.689Z,995.63
2018-08-23T17:35:02.154Z,995.69
2018-08-23T17:40:01.398Z,995.74
2018-08-23T17:45:01.652Z,995.79
2018-08-23T17:50:02.113Z,995.84
2018-08-23T17:55:01.466Z,995.88
2018-08-23T18:00:01.773Z,995.89
2018-08-23T18:05:02.212Z,995.91
2018-08-23T18:10:01.462Z,995.88
2018-08-23T18:15:01.768Z,995.92
2018-08-23T18:20:02.270Z,995.95
2018-08-23T18:25:01.543Z,995.96
2018-08-23T18:30:01.811Z,996.05
2018-08-23T18:35:02.273Z,996.12
2018-08-23T18:40:01.524Z,996.12
2018-08-23T18:45:01.803Z,996.19
2018-08-23T18:50:02.266Z,996.27
2018-08-23T18:55:01.511Z,996.37
2018-08-23T19:00:02.374Z,996.37
2018-08-23T19:05:01.840Z,996.37
2018-08-23T19:10:02.404Z,996.34
2018-08-23T19:15:01.755Z,996.35
2018-08-23T19:20:02.196Z,996.35
2018-08-23T19:25:01.679Z,996.44
2018-08-23T19:30:01.982Z,996.49
2018-08-23T19:35:01.304Z,996.46
2018-08-23T19:40:01.619Z,996.43
2018-08-23T19:45:01.879Z,996.44
2018-08-23T19:50:02.301Z,996.41
2018-08-23T19:55:01.621Z,996.41
2018-08-23T20:00:01.866Z,996.37
2018-08-23T20:05:02.349Z,996.36
2018-08-23T20:10:01.647Z,996.37
2018-08-23T20:15:02.290Z,996.33
2018-08-23T20:20:01.606Z,996.26
2018-08-23T20:25:02.260Z,996.26
2018-08-23T20:30:01.604Z,996.25
2018-08-23T20:35:02.049Z,996.22
2018-08-23T20:40:01.303Z,996.18
2018-08-23T20:45:01.624Z,996.24
2018-08-23T20:50:02.094Z,996.29
2018-08-23T20:55:01.343Z,996.33
2018-08-23T21:00:01.655Z,996.36
2018-08-23T21:05:02.129Z,996.43
2018-08-23T21:10:01.905Z,996.45
2018-08-23T21:15:02.196Z,996.43
2018-08-23T21:20:01.459Z,996.42
2018-08-23T21:25:01.756Z,996.4
2018-08-23T21:30:02.032Z,996.37
2018-08-23T21:35:01.329Z,996.41
2018-08-23T21:40:01.571Z,996.38
2018-08-23T21:45:01.906Z,996.38
2018-08-23T21:50:02.329Z,996.37
2018-08-23T21:55:01.614Z,996.4
2018-08-23T22:00:01.969Z,996.44
2018-08-23T22:05:02.506Z,996.54
2018-08-23T22:10:02.054Z,996.46
2018-08-23T22:15:01.382Z,996.43
2018-08-23T22:20:01.785Z,996.38
2018-08-23T22:25:02.158Z,996.38
2018-08-23T22:30:01.401Z,996.34
2018-08-23T22:35:01.850Z,996.39
2018-08-23T22:40:02.180Z,996.33
2018-08-23T22:45:01.404Z,996.27
2018-08-23T22:50:02.124Z,996.18
2018-08-23T22:55:01.388Z,996.2
2018-08-23T23:00:01.691Z,996.13
2018-08-23T23:05:02.281Z,996.01
2018-08-23T23:10:01.640Z,996.03
2018-08-23T23:15:01.891Z,995.94
2018-08-23T23:20:02.364Z,995.89
2018-08-23T23:25:01.653Z,995.98
2018-08-23T23:30:01.918Z,995.92
2018-08-23T23:35:02.451Z,995.85
2018-08-23T23:40:01.749Z,995.85
2018-08-23T23:45:01.992Z,995.82
2018-08-23T23:50:01.260Z,995.85
2018-08-23T23:55:01.653Z,995.77
